createdAt,value
2018-01-21T00:01:49.319Z,19.50
2018-01-21T00:03:52.770Z,16.90
2018-01-21T00:05:56.582Z,14.90
2018-01-21T00:08:00.227Z,15.80
2018-01-21T00:10:04.772Z,14.40
2018-01-21T00:12:08.279Z,16.60
2018-01-21T00:14:11.871Z,16.07
2018-01-21T00:16:16.401Z,14.80
2018-01-21T00:18:20.525Z,15.40
2018-01-21T00:20:25.142Z,15.23
2018-01-21T00:22:40.473Z,17.00
2018-01-21T00:24:43.903Z,15.70
2018-01-21T00:26:48.110Z,14.63
2018-01-21T00:28:52.291Z,16.40
2018-01-21T00:30:55.681Z,15.60
2018-01-21T00:32:59.946Z,15.27
2018-01-21T00:35:03.280Z,17.00
2018-01-21T00:37:06.843Z,16.83
2018-01-21T00:39:10.776Z,15.40
2018-01-21T00:41:14.237Z,16.70
2018-01-21T00:43:17.622Z,14.77
2018-01-21T00:45:20.971Z,14.50
2018-01-21T00:47:24.324Z,14.97
2018-01-21T00:49:27.703Z,13.70
2018-01-21T00:51:31.052Z,14.00
2018-01-21T00:53:34.428Z,13.80
2018-01-21T00:55:37.820Z,13.47
2018-01-21T00:57:41.465Z,13.67
2018-01-21T00:59:45.572Z,14.80
2018-01-21T01:01:48.923Z,14.00
2018-01-21T01:03:52.282Z,13.23
2018-01-21T01:05:56.329Z,12.33
2018-01-21T01:08:01.580Z,12.90
2018-01-21T01:10:05.406Z,14.43
2018-01-21T01:12:10.592Z,12.47
2018-01-21T01:14:14.046Z,13.40
2018-01-21T01:16:17.388Z,12.10
2018-01-21T01:18:20.823Z,12.90
2018-01-21T01:20:24.183Z,13.60
2018-01-21T01:22:27.665Z,12.00
2018-01-21T01:24:31.136Z,12.73
2018-01-21T01:26:34.656Z,12.40
2018-01-21T01:28:38.042Z,12.53
2018-01-21T01:30:41.515Z,12.40
2018-01-21T01:32:44.966Z,13.07
2018-01-21T01:34:48.402Z,12.50
2018-01-21T01:36:51.929Z,13.23
2018-01-21T01:38:55.329Z,11.10
2018-01-21T01:40:59.643Z,12.10
2018-01-21T01:43:03.747Z,11.10
2018-01-21T01:45:07.180Z,10.10
2018-01-21T01:47:11.278Z,10.70
2018-01-21T01:49:14.724Z,10.00
2018-01-21T01:51:18.204Z,10.53
2018-01-21T01:53:21.685Z,10.23
2018-01-21T01:55:25.140Z,10.40
2018-01-21T01:57:28.630Z,10.20
2018-01-21T01:59:31.973Z,9.20
2018-01-21T02:01:35.387Z,9.97
2018-01-21T02:03:38.814Z,9.07
2018-01-21T02:05:42.929Z,8.60
2018-01-21T02:07:46.312Z,8.20
2018-01-21T02:09:50.654Z,9.30
2018-01-21T02:11:54.017Z,8.77
2018-01-21T02:13:57.369Z,8.27
2018-01-21T02:16:02.347Z,8.67
2018-01-21T02:18:05.755Z,8.27
2018-01-21T02:20:09.284Z,8.03
2018-01-21T02:22:13.451Z,8.20
2018-01-21T02:24:16.891Z,7.70
2018-01-21T02:26:20.416Z,7.80
2018-01-21T02:28:23.742Z,6.60
2018-01-21T02:30:27.129Z,7.70
2018-01-21T02:32:30.489Z,6.40
2018-01-21T02:34:33.824Z,7.50
2018-01-21T02:36:37.213Z,6.50
2018-01-21T02:38:40.614Z,7.00
2018-01-21T02:40:44.129Z,8.30
2018-01-21T02:42:47.485Z,7.00
2018-01-21T02:44:50.827Z,8.67
2018-01-21T02:46:54.191Z,8.03
2018-01-21T02:48:57.513Z,8.63
2018-01-21T02:51:00.835Z,9.73
2018-01-21T02:53:04.213Z,9.27
2018-01-21T02:55:07.541Z,7.90
2018-01-21T02:57:10.882Z,8.17
2018-01-21T02:59:14.228Z,6.70
2018-01-21T03:01:17.560Z,8.30
2018-01-21T03:03:20.930Z,7.87
2018-01-21T03:05:24.252Z,7.60
2018-01-21T03:07:27.552Z,8.07
2018-01-21T03:09:30.893Z,7.67
2018-01-21T03:11:34.227Z,7.73
2018-01-21T03:13:37.569Z,7.30
2018-01-21T03:15:40.879Z,7.50
2018-01-21T03:17:44.180Z,7.50
2018-01-21T03:19:47.520Z,7.87
2018-01-21T03:21:51.620Z,7.50
2018-01-21T03:23:54.971Z,6.87
2018-01-21T03:25:58.277Z,6.47
2018-01-21T03:28:02.410Z,7.00
2018-01-21T03:30:06.522Z,7.30
2018-01-21T03:32:10.687Z,6.10
2018-01-21T03:34:13.997Z,5.80
2018-01-21T03:36:17.346Z,6.73
2018-01-21T03:38:20.659Z,5.70
2018-01-21T03:40:23.998Z,5.70
2018-01-21T03:42:28.068Z,4.73
2018-01-21T03:44:31.377Z,5.13
2018-01-21T03:46:34.726Z,4.80
2018-01-21T03:48:38.036Z,5.13
2018-01-21T03:50:41.378Z,4.60
2018-01-21T03:52:45.469Z,4.50
2018-01-21T03:54:49.543Z,5.50
2018-01-21T03:56:52.902Z,5.23
2018-01-21T03:58:56.224Z,5.70
2018-01-21T04:00:59.561Z,6.70
2018-01-21T04:03:03.680Z,5.90
2018-01-21T04:05:07.001Z,6.43
2018-01-21T04:07:11.113Z,6.80
2018-01-21T04:09:14.488Z,5.70
2018-01-21T04:11:17.869Z,6.17
2018-01-21T04:13:21.189Z,5.30
2018-01-21T04:15:24.503Z,6.20
2018-01-21T04:17:27.882Z,5.43
2018-01-21T04:19:31.217Z,5.90
2018-01-21T04:21:35.294Z,6.30
2018-01-21T04:23:38.667Z,6.03
2018-01-21T04:25:41.977Z,5.17
2018-01-21T04:27:45.327Z,5.60
2018-01-21T04:29:48.662Z,6.07
2018-01-21T04:31:51.969Z,5.70
2018-01-21T04:33:55.273Z,5.70
2018-01-21T04:35:59.397Z,4.40
2018-01-21T04:38:02.748Z,5.37
2018-01-21T04:40:06.081Z,4.60
2018-01-21T04:42:09.402Z,5.00
2018-01-21T04:44:12.748Z,4.47
2018-01-21T04:46:16.841Z,4.67
2018-01-21T04:48:20.212Z,5.57
2018-01-21T04:50:23.535Z,5.10
2018-01-21T04:52:27.634Z,4.93
2018-01-21T04:54:30.988Z,4.70
2018-01-21T04:56:34.314Z,5.37
2018-01-21T04:58:38.072Z,5.40
2018-01-21T05:00:41.387Z,5.10
2018-01-21T05:02:44.706Z,4.63
2018-01-21T05:04:48.847Z,5.50
2018-01-21T05:06:52.185Z,5.10
2018-01-21T05:08:55.780Z,5.67
2018-01-21T05:10:59.087Z,5.00
2018-01-21T05:13:03.182Z,5.70
2018-01-21T05:15:06.802Z,5.50
2018-01-21T05:17:10.888Z,5.10
2018-01-21T05:19:14.342Z,4.47
2018-01-21T05:21:17.656Z,4.77
2018-01-21T05:23:21.008Z,5.40
2018-01-21T05:25:24.362Z,5.53
2018-01-21T05:27:28.337Z,5.63
2018-01-21T05:29:31.687Z,5.50
2018-01-21T05:31:35.032Z,6.33
2018-01-21T05:33:38.581Z,7.20
2018-01-21T05:35:41.915Z,8.43
2018-01-21T05:37:45.242Z,7.37
2018-01-21T05:39:48.597Z,14.80
2018-01-21T05:41:51.916Z,8.60
2018-01-21T05:43:56.028Z,7.97
2018-01-21T05:45:59.372Z,7.57
2018-01-21T05:48:02.713Z,7.90
2018-01-21T05:50:06.020Z,8.83
2018-01-21T05:52:10.109Z,9.47
2018-01-21T05:54:13.435Z,6.97
2018-01-21T05:56:16.765Z,5.93
2018-01-21T05:58:20.087Z,5.90
2018-01-21T06:00:23.398Z,6.67
2018-01-21T06:02:26.720Z,6.63
2018-01-21T06:04:30.036Z,6.50
2018-01-21T06:06:33.377Z,5.63
2018-01-21T06:08:36.681Z,5.80
2018-01-21T06:10:39.999Z,5.40
2018-01-21T06:12:43.366Z,5.60
2018-01-21T06:14:46.682Z,6.20
2018-01-21T06:16:50.028Z,5.60
2018-01-21T06:18:53.836Z,5.73
2018-01-21T06:20:58.479Z,6.13
2018-01-21T06:23:03.369Z,5.70
2018-01-21T06:25:08.248Z,6.50
2018-01-21T06:27:11.613Z,6.57
2018-01-21T06:29:14.935Z,5.80
2018-01-21T06:31:18.332Z,6.47
2018-01-21T06:33:21.673Z,6.20
2018-01-21T06:35:25.033Z,5.60
2018-01-21T06:37:29.985Z,6.53
2018-01-21T06:39:33.299Z,5.87
2018-01-21T06:41:36.625Z,5.63
2018-01-21T06:43:39.987Z,5.87
2018-01-21T06:45:44.072Z,5.73
2018-01-21T06:47:48.181Z,6.90
2018-01-21T06:49:51.494Z,6.63
2018-01-21T06:51:54.838Z,6.40
2018-01-21T06:53:59.930Z,6.33
2018-01-21T06:56:03.266Z,6.43
2018-01-21T06:58:07.431Z,5.60
2018-01-21T07:00:10.812Z,6.77
2018-01-21T07:02:14.161Z,6.50
2018-01-21T07:04:18.335Z,6.07
2018-01-21T07:06:21.669Z,6.83
2018-01-21T07:08:25.044Z,5.67
2018-01-21T07:10:29.686Z,6.70
2018-01-21T07:12:33.960Z,6.50
2018-01-21T07:14:38.110Z,6.00
2018-01-21T07:16:43.697Z,6.10
2018-01-21T07:18:49.094Z,6.07
2018-01-21T07:20:52.458Z,5.50
2018-01-21T07:22:56.704Z,6.30
2018-01-21T07:25:00.069Z,6.67
2018-01-21T07:27:04.443Z,7.10
2018-01-21T07:29:08.084Z,6.83
2018-01-21T07:31:11.601Z,8.30
2018-01-21T07:33:15.025Z,7.00
2018-01-21T07:35:18.424Z,8.60
2018-01-21T07:37:21.821Z,9.30
2018-01-21T07:39:25.226Z,9.20
2018-01-21T07:41:28.573Z,10.13
2018-01-21T07:43:33.362Z,10.67
2018-01-21T07:45:36.744Z,11.70
2018-01-21T07:47:40.089Z,16.23
2018-01-21T07:49:43.532Z,14.00
2018-01-21T07:51:47.009Z,13.13
2018-01-21T07:53:51.632Z,13.10
2018-01-21T07:55:55.503Z,12.70
2018-01-21T07:57:58.943Z,10.17
2018-01-21T08:00:06.543Z,11.60
2018-01-21T08:02:10.963Z,14.07
2018-01-21T08:04:15.920Z,15.90
2018-01-21T08:06:19.558Z,16.70
2018-01-21T08:08:24.054Z,15.87
2018-01-21T08:10:28.271Z,14.30
2018-01-21T08:12:32.442Z,13.87
2018-01-21T08:14:35.853Z,10.40
2018-01-21T08:16:39.209Z,9.63
2018-01-21T08:18:42.799Z,10.47
2018-01-21T08:20:46.269Z,9.17
2018-01-21T08:22:50.539Z,9.60
2018-01-21T08:24:53.914Z,10.50
2018-01-21T08:26:58.052Z,9.90
2018-01-21T08:29:01.539Z,12.10
2018-01-21T08:31:04.997Z,11.00
2018-01-21T08:33:09.224Z,7.90
2018-01-21T08:37:55.961Z,7.83
2018-01-21T08:40:05.649Z,9.80
2018-01-21T08:42:10.889Z,10.57
2018-01-21T08:44:14.221Z,9.40
2018-01-21T08:46:18.338Z,6.37
2018-01-21T08:48:21.729Z,7.27
2018-01-21T08:50:25.065Z,6.50
2018-01-21T08:52:28.458Z,6.00
2018-01-21T08:54:31.817Z,7.03
2018-01-21T08:56:35.169Z,6.30
2018-01-21T08:58:38.497Z,7.00
2018-01-21T09:00:41.866Z,7.47
2018-01-21T09:02:45.248Z,7.20
2018-01-21T09:04:48.614Z,5.70
2018-01-21T09:06:51.955Z,7.40
2018-01-21T09:08:55.302Z,12.37
2018-01-21T09:10:58.645Z,8.80
2018-01-21T09:13:01.980Z,8.00
2018-01-21T09:15:05.326Z,5.63
2018-01-21T09:17:08.714Z,7.03
2018-01-21T09:19:12.803Z,7.47
2018-01-21T09:21:16.912Z,5.77
2018-01-21T09:23:20.268Z,6.33
2018-01-21T09:25:23.598Z,6.43
2018-01-21T09:27:26.978Z,6.17
2018-01-21T09:29:30.335Z,6.40
2018-01-21T09:31:33.719Z,6.43
2018-01-21T09:33:37.040Z,7.67
2018-01-21T09:35:41.178Z,7.47
2018-01-21T09:37:44.579Z,7.17
2018-01-21T09:39:48.661Z,7.00
2018-01-21T09:41:52.001Z,6.90
2018-01-21T09:43:55.315Z,6.60
2018-01-21T09:45:58.673Z,6.70
2018-01-21T09:48:02.023Z,7.00
2018-01-21T09:50:06.131Z,6.10
2018-01-21T09:52:09.469Z,6.67
2018-01-21T09:54:12.855Z,6.17
2018-01-21T09:56:16.171Z,8.30
2018-01-21T09:58:19.502Z,8.00
2018-01-21T10:00:22.820Z,6.40
2018-01-21T10:02:26.900Z,6.20
2018-01-21T10:04:30.245Z,5.93
2018-01-21T10:06:33.565Z,6.83
2018-01-21T10:08:36.906Z,6.27
2018-01-21T10:10:40.249Z,6.70
2018-01-21T10:12:43.560Z,5.27
2018-01-21T10:14:46.902Z,6.07
2018-01-21T10:16:50.262Z,5.83
2018-01-21T10:18:54.349Z,4.60
2018-01-21T10:20:57.678Z,5.37
2018-01-21T10:23:01.022Z,5.43
2018-01-21T10:25:04.364Z,5.43
2018-01-21T10:27:07.687Z,5.43
2018-01-21T10:29:11.008Z,6.60
2018-01-21T10:31:14.319Z,7.93
2018-01-21T10:33:17.638Z,7.30
2018-01-21T10:35:20.960Z,5.53
2018-01-21T10:37:24.276Z,7.33
2018-01-21T10:39:27.589Z,5.20
2018-01-21T10:41:31.679Z,6.20
2018-01-21T10:43:34.984Z,5.60
2018-01-21T10:45:39.917Z,7.03
2018-01-21T10:47:44.131Z,5.90
2018-01-21T10:49:47.508Z,5.90
2018-01-21T10:51:51.610Z,5.20
2018-01-21T10:53:57.196Z,5.70
2018-01-21T10:56:01.259Z,4.70
2018-01-21T10:58:04.592Z,7.03
2018-01-21T11:00:07.908Z,6.43
2018-01-21T11:02:11.246Z,7.40
2018-01-21T11:04:15.337Z,14.43
2018-01-21T11:06:18.674Z,10.40
2018-01-21T11:08:21.994Z,8.97
2018-01-21T11:10:25.314Z,5.47
2018-01-21T11:12:29.389Z,5.00
2018-01-21T11:14:32.696Z,6.40
2018-01-21T11:16:35.999Z,5.73
2018-01-21T11:18:39.311Z,5.97
2018-01-21T11:20:42.632Z,4.50
2018-01-21T11:22:45.958Z,4.90
2018-01-21T11:24:49.259Z,5.00
2018-01-21T11:26:52.570Z,5.33
2018-01-21T11:28:56.638Z,5.40
2018-01-21T11:30:59.948Z,5.70
2018-01-21T11:33:03.241Z,6.60
2018-01-21T11:35:06.568Z,5.90
2018-01-21T11:37:09.900Z,6.10
2018-01-21T11:39:13.285Z,7.00
2018-01-21T11:41:16.687Z,6.10
2018-01-21T11:43:20.034Z,6.27
2018-01-21T11:45:23.357Z,5.70
2018-01-21T11:47:26.708Z,5.20
2018-01-21T11:49:30.794Z,5.50
2018-01-21T11:51:34.107Z,5.33
2018-01-21T11:53:38.223Z,5.53
2018-01-21T11:55:42.273Z,6.17
2018-01-21T11:57:45.599Z,5.80
2018-01-21T11:59:49.689Z,6.20
2018-01-21T12:01:53.040Z,5.90
2018-01-21T12:03:56.378Z,5.80
2018-01-21T12:05:59.705Z,5.20
2018-01-21T12:08:03.045Z,5.00
2018-01-21T12:10:06.377Z,4.90
2018-01-21T12:12:09.694Z,5.07
2018-01-21T12:14:13.001Z,5.57
2018-01-21T12:16:16.318Z,5.70
2018-01-21T12:18:19.630Z,5.40
2018-01-21T12:20:23.705Z,5.47
2018-01-21T12:22:27.012Z,5.40
2018-01-21T12:24:30.317Z,7.03
2018-01-21T12:26:34.401Z,5.03
2018-01-21T12:28:37.725Z,5.30
2018-01-21T12:30:41.796Z,5.30
2018-01-21T12:32:45.110Z,4.97
2018-01-21T12:34:49.186Z,5.20
2018-01-21T12:36:52.540Z,5.13
2018-01-21T12:38:55.835Z,4.73
2018-01-21T12:40:59.150Z,4.30
2018-01-21T12:43:02.470Z,5.37
2018-01-21T12:45:05.841Z,5.03
2018-01-21T12:47:09.146Z,4.50
2018-01-21T12:49:12.452Z,4.70
2018-01-21T12:51:15.754Z,4.53
2018-01-21T12:53:19.834Z,4.43
2018-01-21T12:55:23.141Z,4.03
2018-01-21T12:57:26.449Z,3.90
2018-01-21T12:59:30.516Z,4.37
2018-01-21T13:01:33.825Z,3.70
2018-01-21T13:03:37.132Z,4.30
2018-01-21T13:05:40.458Z,5.07
2018-01-21T13:07:43.771Z,4.33
2018-01-21T13:09:47.911Z,4.53
2018-01-21T13:11:51.213Z,4.47
2018-01-21T13:13:55.280Z,4.57
2018-01-21T13:15:58.606Z,4.90
2018-01-21T13:18:02.686Z,5.70
2018-01-21T13:20:06.014Z,3.90
2018-01-21T13:22:10.086Z,3.93
2018-01-21T13:24:13.402Z,4.70
2018-01-21T13:26:16.737Z,4.70
2018-01-21T13:28:20.032Z,4.70
2018-01-21T13:30:23.340Z,4.80
2018-01-21T13:32:26.645Z,6.40
2018-01-21T13:34:29.950Z,5.17
2018-01-21T13:36:33.292Z,4.53
2018-01-21T13:38:36.602Z,4.53
2018-01-21T13:40:39.900Z,5.50
2018-01-21T13:42:43.215Z,4.73
2018-01-21T13:44:46.542Z,6.00
2018-01-21T13:46:49.886Z,5.00
2018-01-21T13:48:53.905Z,5.20
2018-01-21T13:50:57.264Z,8.33
2018-01-21T13:53:00.811Z,9.60
2018-01-21T13:55:04.124Z,6.63
2018-01-21T13:57:07.466Z,5.40
2018-01-21T13:59:10.756Z,5.13
2018-01-21T14:01:14.078Z,6.10
2018-01-21T14:03:17.829Z,5.20
2018-01-21T14:05:21.138Z,6.50
2018-01-21T14:07:25.230Z,5.73
2018-01-21T14:09:29.521Z,5.73
2018-01-21T14:11:32.847Z,5.23
2018-01-21T14:13:36.146Z,5.60
2018-01-21T14:15:39.467Z,6.13
2018-01-21T14:17:44.470Z,5.63
2018-01-21T14:19:50.282Z,5.40
2018-01-21T14:21:54.317Z,6.20
2018-01-21T14:23:57.669Z,4.77
2018-01-21T14:26:00.979Z,6.27
2018-01-21T14:28:04.287Z,5.80
2018-01-21T14:30:07.584Z,5.37
2018-01-21T14:32:10.915Z,4.93
2018-01-21T14:34:14.214Z,4.47
2018-01-21T14:36:17.519Z,4.80
2018-01-21T14:38:20.836Z,5.40
2018-01-21T14:40:24.166Z,5.40
2018-01-21T14:42:27.478Z,5.00
2018-01-21T14:44:30.788Z,5.87
2018-01-21T14:46:34.305Z,4.43
2018-01-21T14:48:37.660Z,4.70
2018-01-21T14:50:41.004Z,4.60
2018-01-21T14:52:45.089Z,4.80
2018-01-21T14:54:50.758Z,5.10
2018-01-21T14:56:54.860Z,6.13
2018-01-21T14:58:58.204Z,5.70
2018-01-21T15:01:01.655Z,5.67
2018-01-21T15:03:05.730Z,6.10
2018-01-21T15:05:09.033Z,5.40
2018-01-21T15:07:13.141Z,6.47
2018-01-21T15:09:16.447Z,5.70
2018-01-21T15:11:20.547Z,6.30
2018-01-21T15:13:23.925Z,5.40
2018-01-21T15:15:27.265Z,5.10
2018-01-21T15:17:30.592Z,4.93
2018-01-21T15:19:33.908Z,4.43
2018-01-21T15:21:37.224Z,4.93
2018-01-21T15:23:40.602Z,6.30
2018-01-21T15:25:43.912Z,6.87
2018-01-21T15:27:48.047Z,8.00
2018-01-21T15:29:51.356Z,8.20
2018-01-21T15:31:54.787Z,9.87
2018-01-21T15:33:58.101Z,8.97
2018-01-21T15:36:02.178Z,8.13
2018-01-21T15:38:05.768Z,6.23
2018-01-21T15:40:09.882Z,7.33
2018-01-21T15:42:13.210Z,8.80
2018-01-21T15:44:17.398Z,9.93
2018-01-21T15:46:22.506Z,10.60
2018-01-21T15:48:25.861Z,10.03
2018-01-21T15:50:29.178Z,11.80
2018-01-21T15:52:32.530Z,10.17
2018-01-21T15:54:35.898Z,11.07
2018-01-21T15:56:39.223Z,10.20
2018-01-21T15:58:42.564Z,8.57
2018-01-21T16:00:46.692Z,28.13
2018-01-21T16:02:50.778Z,12.10
2018-01-21T16:04:54.089Z,12.10
2018-01-21T16:06:57.423Z,10.87
2018-01-21T16:09:00.753Z,9.60
2018-01-21T16:11:04.865Z,12.37
2018-01-21T16:13:08.286Z,10.17
2018-01-21T16:15:11.669Z,11.30
2018-01-21T16:17:15.754Z,12.83
2018-01-21T16:19:19.123Z,9.90
2018-01-21T16:21:22.438Z,9.50
2018-01-21T16:23:25.749Z,7.97
2018-01-21T16:25:29.077Z,6.47
2018-01-21T16:27:33.149Z,6.17
2018-01-21T16:29:37.244Z,6.20
2018-01-21T16:31:40.587Z,7.93
2018-01-21T16:33:44.821Z,10.77
2018-01-21T16:35:48.295Z,13.07
2018-01-21T16:38:03.733Z,12.00
2018-01-21T16:40:07.828Z,14.67
2018-01-21T16:42:19.645Z,12.83
2018-01-21T16:44:24.273Z,13.37
2018-01-21T16:46:28.577Z,11.47
2018-01-21T16:48:31.893Z,11.27
2018-01-21T16:50:35.875Z,13.40
2018-01-21T16:52:39.333Z,13.97
2018-01-21T16:54:42.718Z,11.10
2018-01-21T16:56:46.085Z,10.50
2018-01-21T16:58:50.766Z,8.50
2018-01-21T17:00:58.982Z,8.07
2018-01-21T17:03:03.254Z,8.57
2018-01-21T17:05:06.625Z,7.80
2018-01-21T17:07:10.604Z,9.37
2018-01-21T17:09:14.009Z,8.43
2018-01-21T17:11:17.804Z,8.67
2018-01-21T17:13:21.224Z,8.97
2018-01-21T17:15:24.860Z,7.87
2018-01-21T17:17:28.472Z,10.80
2018-01-21T17:19:31.841Z,11.20
2018-01-21T17:21:39.294Z,13.07
2018-01-21T17:23:43.971Z,14.30
2018-01-21T17:25:48.240Z,15.73
2018-01-21T17:27:51.951Z,12.93
2018-01-21T17:29:56.793Z,12.40
2018-01-21T17:32:00.078Z,12.47
2018-01-21T17:34:03.465Z,12.40
2018-01-21T17:36:07.594Z,12.60
2018-01-21T17:38:12.414Z,10.40
2018-01-21T17:40:16.772Z,10.80
2018-01-21T17:42:20.251Z,11.63
2018-01-21T17:44:26.153Z,12.00
2018-01-21T17:46:29.487Z,12.17
2018-01-21T17:48:33.075Z,12.60
2018-01-21T17:50:37.117Z,12.40
2018-01-21T17:52:41.451Z,10.90
2018-01-21T17:54:44.877Z,15.60
2018-01-21T17:56:49.613Z,11.17
2018-01-21T17:58:53.300Z,13.90
2018-01-21T18:00:56.949Z,12.93
2018-01-21T18:03:00.617Z,12.00
2018-01-21T18:05:04.807Z,12.07
2018-01-21T18:07:09.034Z,11.30
2018-01-21T18:09:12.640Z,11.43
2018-01-21T18:11:16.254Z,11.87
2018-01-21T18:13:20.618Z,13.33
2018-01-21T18:15:23.980Z,12.47
2018-01-21T18:17:27.865Z,11.47
2018-01-21T18:19:31.816Z,14.93
2018-01-21T18:21:36.109Z,14.77
2018-01-21T18:23:39.636Z,10.73
2018-01-21T18:25:43.971Z,11.37
2018-01-21T18:27:48.083Z,11.00
2018-01-21T18:29:52.188Z,12.70
2018-01-21T18:31:56.474Z,10.20
2018-01-21T18:33:59.824Z,12.43
2018-01-21T18:36:03.239Z,11.30
2018-01-21T18:38:06.610Z,10.53
2018-01-21T18:40:09.986Z,12.30
2018-01-21T18:42:13.419Z,10.70
2018-01-21T18:44:16.921Z,11.57
2018-01-21T18:46:20.310Z,10.50
2018-01-21T18:48:23.649Z,10.73
2018-01-21T18:50:27.041Z,8.93
2018-01-21T18:52:30.389Z,10.00
2018-01-21T18:54:33.796Z,8.20
2018-01-21T18:56:37.954Z,8.13
2018-01-21T18:58:42.415Z,8.70
2018-01-21T19:00:47.293Z,8.10
2018-01-21T19:02:51.261Z,8.77
2018-01-21T19:04:56.671Z,10.13
2018-01-21T19:07:00.488Z,12.50
2018-01-21T19:09:04.501Z,20.10
2018-01-21T19:11:08.954Z,18.30
2018-01-21T19:13:12.599Z,15.50
2018-01-21T19:15:16.046Z,17.60
2018-01-21T19:17:20.200Z,15.47
2018-01-21T19:19:24.328Z,12.30
2018-01-21T19:21:28.143Z,14.20
2018-01-21T19:23:34.371Z,12.00
2018-01-21T19:25:38.141Z,12.33
2018-01-21T19:27:42.325Z,12.77
2018-01-21T19:29:45.786Z,10.93
2018-01-21T19:31:51.103Z,9.90
2018-01-21T19:33:56.720Z,10.80
2018-01-21T19:36:02.954Z,9.50
2018-01-21T19:38:07.092Z,10.30
2018-01-21T19:40:11.200Z,14.17
2018-01-21T19:42:17.552Z,12.63
2018-01-21T19:44:33.300Z,14.17
2018-01-21T19:46:38.080Z,13.23
2018-01-21T19:48:43.109Z,12.80
2018-01-21T19:50:48.994Z,9.63
2018-01-21T19:52:53.864Z,11.53
2018-01-21T19:54:58.458Z,11.47
2018-01-21T19:57:03.684Z,10.33
2018-01-21T19:59:08.933Z,10.30
2018-01-21T20:01:17.028Z,11.20
2018-01-21T20:03:21.592Z,12.53
2018-01-21T20:05:25.155Z,14.40
2018-01-21T20:07:28.661Z,14.20
2018-01-21T20:09:33.271Z,17.60
2018-01-21T20:11:37.553Z,12.37
2018-01-21T20:13:42.941Z,11.47
2018-01-21T20:15:47.649Z,11.90
2018-01-21T20:17:51.708Z,9.77
2018-01-21T20:19:55.951Z,12.57
2018-01-21T20:21:59.595Z,12.87
2018-01-21T20:24:03.760Z,9.00
2018-01-21T20:26:07.277Z,9.87
2018-01-21T20:28:13.158Z,15.23
2018-01-21T20:30:18.332Z,12.20
2018-01-21T20:32:23.213Z,11.10
2018-01-21T20:34:27.930Z,9.97
2018-01-21T20:36:33.350Z,7.97
2018-01-21T20:38:37.848Z,7.30
2018-01-21T20:40:42.631Z,8.53
2018-01-21T20:42:47.198Z,14.23
2018-01-21T20:44:52.420Z,17.07
2018-01-21T20:46:56.378Z,8.70
2018-01-21T20:49:01.148Z,11.13
2018-01-21T20:51:10.660Z,13.30
2018-01-21T20:53:20.423Z,9.13
2018-01-21T20:55:23.741Z,8.93
2018-01-21T20:57:28.040Z,9.10
2018-01-21T20:59:33.084Z,7.60
2018-01-21T21:01:37.390Z,7.40
2018-01-21T21:03:41.948Z,7.33
2018-01-21T21:05:45.522Z,9.30
2018-01-21T21:07:50.459Z,8.53
2018-01-21T21:09:53.798Z,6.40
2018-01-21T21:11:57.119Z,6.80
2018-01-21T21:14:00.448Z,7.90
2018-01-21T21:16:05.586Z,6.97
2018-01-21T21:18:10.739Z,7.50
2018-01-21T21:20:15.405Z,6.27
2018-01-21T21:22:21.041Z,6.50
2018-01-21T21:24:26.237Z,6.30
2018-01-21T21:26:31.282Z,6.40
2018-01-21T21:28:35.354Z,6.00
2018-01-21T21:30:41.226Z,6.80
2018-01-21T21:32:44.725Z,6.53
2018-01-21T21:34:48.098Z,6.50
2018-01-21T21:36:51.412Z,7.07
2018-01-21T21:38:54.718Z,7.20
2018-01-21T21:40:59.001Z,6.30
2018-01-21T21:43:02.635Z,6.57
2018-01-21T21:45:05.986Z,7.37
2018-01-21T21:47:10.563Z,8.03
2018-01-21T21:49:15.333Z,7.43
2018-01-21T21:51:18.656Z,6.80
2018-01-21T21:53:22.152Z,7.17
2018-01-21T21:55:25.486Z,7.40
2018-01-21T21:57:28.877Z,7.27
2018-01-21T21:59:32.201Z,8.00
2018-01-21T22:01:35.624Z,7.47
2018-01-21T22:03:39.138Z,8.40
2018-01-21T22:05:44.031Z,11.27
2018-01-21T22:07:48.437Z,10.13
2018-01-21T22:09:53.067Z,7.90
2018-01-21T22:11:57.662Z,9.77
2018-01-21T22:14:01.010Z,14.87
2018-01-21T22:16:05.752Z,16.60
2018-01-21T22:18:09.170Z,11.83
2018-01-21T22:20:12.530Z,10.33
2018-01-21T22:22:16.663Z,10.30
2018-01-21T22:24:20.625Z,9.60
2018-01-21T22:26:24.043Z,9.90
2018-01-21T22:28:27.503Z,9.73
2018-01-21T22:30:30.810Z,9.83
2018-01-21T22:32:34.156Z,7.57
2018-01-21T22:34:38.803Z,7.00
2018-01-21T22:36:42.113Z,7.83
2018-01-21T22:38:45.447Z,7.43
2018-01-21T22:40:48.751Z,7.83
2018-01-21T22:42:52.546Z,7.20
2018-01-21T22:44:56.711Z,7.77
2018-01-21T22:47:01.005Z,7.33
2018-01-21T22:49:05.043Z,7.30
2018-01-21T22:51:08.833Z,7.40
2018-01-21T22:53:13.826Z,7.03
2018-01-21T22:55:17.472Z,7.23
2018-01-21T22:57:21.830Z,7.13
2018-01-21T22:59:25.249Z,8.27
2018-01-21T23:01:28.564Z,6.70
2018-01-21T23:03:32.274Z,6.83
2018-01-21T23:05:35.883Z,6.73
2018-01-21T23:07:39.203Z,6.70
2018-01-21T23:09:42.524Z,6.70
2018-01-21T23:11:45.910Z,7.00
2018-01-21T23:13:49.319Z,6.77
2018-01-21T23:15:52.806Z,5.97
2018-01-21T23:17:57.117Z,6.63
2018-01-21T23:20:00.512Z,6.20
2018-01-21T23:22:03.905Z,6.43
2018-01-21T23:24:07.220Z,5.97
2018-01-21T23:26:10.666Z,6.27
2018-01-21T23:28:14.010Z,6.97
2018-01-21T23:30:18.097Z,6.60
2018-01-21T23:32:21.482Z,5.77
2018-01-21T23:34:24.862Z,6.10
2018-01-21T23:36:28.367Z,6.20
2018-01-21T23:38:31.728Z,6.33
2018-01-21T23:40:35.110Z,5.57
2018-01-21T23:42:38.433Z,5.90
2018-01-21T23:44:41.750Z,6.13
2018-01-21T23:46:45.873Z,6.53
2018-01-21T23:48:49.987Z,6.63
2018-01-21T23:50:53.318Z,4.73
2018-01-21T23:52:56.647Z,5.30
2018-01-21T23:54:59.957Z,5.00
2018-01-21T23:57:04.023Z,6.57
2018-01-21T23:59:07.429Z,6.80
